Terminal Aerodrome Forecast
Issued by NWS Green Bay, WI

Home | Current Version | Previous Version | Text Only | Print | Product List | Glossary Off
Versions: 1 2 3 4 5 6 7 8 9 10 11 12 13 14 15 16 17 18 19 20 21 22 23 24 25 26 27 28 29 30

000
FTUS43 KGRB 040500
TAFGRB
TAF
KGRB 040528Z 0406/0506 35007KT P6SM -SHRA SCT030 BKN080
      TEMPO 0406/0407 4SM TSRA BKN030CB
     FM040900 32006KT P6SM SCT070 BKN090
     FM041500 04010G16KT P6SM SCT060
     FM042100 06007KT P6SM SCT250=

USA.gov is the U.S. government's official web portal to all federal, state and local government web resources and services.